sensor_id;sensor_type;location;lat;lon;timestamp;temperature;humidity
2539;DHT22;1280;49.760;9.664;2022-12-29T00:00:04;10.10;73.80
2539;DHT22;1280;49.760;9.664;2022-12-29T00:02:39;10.10;73.90
2539;DHT22;1280;49.760;9.664;2022-12-29T00:05:08;10.10;73.80
2539;DHT22;1280;49.760;9.664;2022-12-29T00:07:36;10.20;73.90
2539;DHT22;1280;49.760;9.664;2022-12-29T00:10:05;10.20;73.90
2539;DHT22;1280;49.760;9.664;2022-12-29T00:12:33;10.20;73.90
2539;DHT22;1280;49.760;9.664;2022-12-29T00:15:14;10.10;74.00
2539;DHT22;1280;49.760;9.664;2022-12-29T00:18:01;10.10;74.10
2539;DHT22;1280;49.760;9.664;2022-12-29T00:20:29;10.20;74.10
2539;DHT22;1280;49.760;9.664;2022-12-29T00:23:18;10.20;74.10
2539;DHT22;1280;49.760;9.664;2022-12-29T00:26:03;10.20;74.20
2539;DHT22;1280;49.760;9.664;2022-12-29T00:28:50;10.20;74.20
2539;DHT22;1280;49.760;9.664;2022-12-29T00:31:35;10.20;74.20
2539;DHT22;1280;49.760;9.664;2022-12-29T00:34:22;10.20;74.30
2539;DHT22;1280;49.760;9.664;2022-12-29T00:37:10;10.20;74.30
2539;DHT22;1280;49.760;9.664;2022-12-29T00:39:37;10.20;74.40
2539;DHT22;1280;49.760;9.664;2022-12-29T00:42:24;10.20;74.40
2539;DHT22;1280;49.760;9.664;2022-12-29T00:45:09;10.20;74.40
2539;DHT22;1280;49.760;9.664;2022-12-29T00:47:37;10.20;74.50
2539;DHT22;1280;49.760;9.664;2022-12-29T00:50:07;10.20;74.60
2539;DHT22;1280;49.760;9.664;2022-12-29T00:52:34;10.30;74.60
2539;DHT22;1280;49.760;9.664;2022-12-29T00:55:02;10.30;74.60
2539;DHT22;1280;49.760;9.664;2022-12-29T00:57:30;10.30;74.60
2539;DHT22;1280;49.760;9.664;2022-12-29T00:59:58;10.30;74.60
2539;DHT22;1280;49.760;9.664;2022-12-29T01:02:26;10.30;74.70
2539;DHT22;1280;49.760;9.664;2022-12-29T01:04:54;10.40;74.70
2539;DHT22;1280;49.760;9.664;2022-12-29T01:07:23;10.40;74.80
2539;DHT22;1280;49.760;9.664;2022-12-29T01:09:51;10.40;74.80
2539;DHT22;1280;49.760;9.664;2022-12-29T01:12:36;10.40;74.80
2539;DHT22;1280;49.760;9.664;2022-12-29T01:15:13;10.40;74.80
2539;DHT22;1280;49.760;9.664;2022-12-29T01:17:42;10.40;74.80
2539;DHT22;1280;49.760;9.664;2022-12-29T01:20:10;10.40;74.80
2539;DHT22;1280;49.760;9.664;2022-12-29T01:22:41;10.40;74.80
2539;DHT22;1280;49.760;9.664;2022-12-29T01:25:10;10.40;74.90
2539;DHT22;1280;49.760;9.664;2022-12-29T01:27:38;10.50;74.90
2539;DHT22;1280;49.760;9.664;2022-12-29T01:30:07;10.50;75.00
2539;DHT22;1280;49.760;9.664;2022-12-29T01:32:35;10.50;75.10
2539;DHT22;1280;49.760;9.664;2022-12-29T01:35:03;10.50;75.10
2539;DHT22;1280;49.760;9.664;2022-12-29T01:37:34;10.50;75.10
2539;DHT22;1280;49.760;9.664;2022-12-29T01:40:04;10.50;75.20
2539;DHT22;1280;49.760;9.664;2022-12-29T01:42:32;10.60;75.30
2539;DHT22;1280;49.760;9.664;2022-12-29T01:45:02;10.60;75.20
2539;DHT22;1280;49.760;9.664;2022-12-29T01:47:34;10.60;75.40
2539;DHT22;1280;49.760;9.664;2022-12-29T01:50:08;10.60;75.40
2539;DHT22;1280;49.760;9.664;2022-12-29T01:52:40;10.60;75.50
2539;DHT22;1280;49.760;9.664;2022-12-29T01:55:11;10.60;75.60
2539;DHT22;1280;49.760;9.664;2022-12-29T01:57:44;10.60;75.60
2539;DHT22;1280;49.760;9.664;2022-12-29T02:00:14;10.70;75.60
2539;DHT22;1280;49.760;9.664;2022-12-29T02:02:50;10.60;75.70
2539;DHT22;1280;49.760;9.664;2022-12-29T02:05:24;10.70;75.70
2539;DHT22;1280;49.760;9.664;2022-12-29T02:07:54;10.60;75.90
2539;DHT22;1280;49.760;9.664;2022-12-29T02:10:26;10.60;75.90
2539;DHT22;1280;49.760;9.664;2022-12-29T02:12:56;10.60;76.10
2539;DHT22;1280;49.760;9.664;2022-12-29T02:15:35;10.60;76.20
2539;DHT22;1280;49.760;9.664;2022-12-29T02:18:15;10.60;76.40
2539;DHT22;1280;49.760;9.664;2022-12-29T02:21:06;10.60;76.50
2539;DHT22;1280;49.760;9.664;2022-12-29T02:24:09;10.60;76.70
2539;DHT22;1280;49.760;9.664;2022-12-29T02:26:59;10.60;76.70
2539;DHT22;1280;49.760;9.664;2022-12-29T02:29:51;10.60;77.00
2539;DHT22;1280;49.760;9.664;2022-12-29T02:32:29;10.50;77.00
2539;DHT22;1280;49.760;9.664;2022-12-29T02:35:06;10.50;77.10
2539;DHT22;1280;49.760;9.664;2022-12-29T02:37:41;10.50;77.30
2539;DHT22;1280;49.760;9.664;2022-12-29T02:40:17;10.50;77.30
2539;DHT22;1280;49.760;9.664;2022-12-29T02:42:51;10.50;77.40
2539;DHT22;1280;49.760;9.664;2022-12-29T02:45:29;10.50;77.60
2539;DHT22;1280;49.760;9.664;2022-12-29T02:48:04;10.50;77.80
2539;DHT22;1280;49.760;9.664;2022-12-29T02:50:37;10.50;77.80
2539;DHT22;1280;49.760;9.664;2022-12-29T02:53:11;10.50;77.90
2539;DHT22;1280;49.760;9.664;2022-12-29T02:55:47;10.50;78.00
2539;DHT22;1280;49.760;9.664;2022-12-29T02:58:17;10.50;78.10
2539;DHT22;1280;49.760;9.664;2022-12-29T03:00:56;10.50;78.80
2539;DHT22;1280;49.760;9.664;2022-12-29T03:03:43;10.50;78.60
2539;DHT22;1280;49.760;9.664;2022-12-29T03:06:30;10.60;78.70
2539;DHT22;1280;49.760;9.664;2022-12-29T03:09:11;10.60;78.80
2539;DHT22;1280;49.760;9.664;2022-12-29T03:11:50;10.60;78.90
2539;DHT22;1280;49.760;9.664;2022-12-29T03:14:44;10.60;79.10
2539;DHT22;1280;49.760;9.664;2022-12-29T03:17:39;10.60;79.20
2539;DHT22;1280;49.760;9.664;2022-12-29T03:20:14;10.60;79.50
2539;DHT22;1280;49.760;9.664;2022-12-29T03:22:47;10.60;79.80
2539;DHT22;1280;49.760;9.664;2022-12-29T03:25:24;10.60;79.80
2539;DHT22;1280;49.760;9.664;2022-12-29T03:27:55;10.60;79.80
2539;DHT22;1280;49.760;9.664;2022-12-29T03:30:26;10.60;80.10
2539;DHT22;1280;49.760;9.664;2022-12-29T03:32:58;10.60;80.20
2539;DHT22;1280;49.760;9.664;2022-12-29T03:35:34;10.60;80.50
2539;DHT22;1280;49.760;9.664;2022-12-29T03:38:11;10.60;80.50
2539;DHT22;1280;49.760;9.664;2022-12-29T03:40:43;10.60;80.40
2539;DHT22;1280;49.760;9.664;2022-12-29T03:43:12;10.60;80.50
2539;DHT22;1280;49.760;9.664;2022-12-29T03:45:41;10.60;80.60
2539;DHT22;1280;49.760;9.664;2022-12-29T03:48:09;10.60;80.60
2539;DHT22;1280;49.760;9.664;2022-12-29T03:50:41;10.60;80.70
2539;DHT22;1280;49.760;9.664;2022-12-29T03:53:09;10.60;80.80
2539;DHT22;1280;49.760;9.664;2022-12-29T03:55:38;10.60;80.90
2539;DHT22;1280;49.760;9.664;2022-12-29T03:58:06;10.60;81.00
2539;DHT22;1280;49.760;9.664;2022-12-29T04:00:48;10.60;81.00
2539;DHT22;1280;49.760;9.664;2022-12-29T04:03:17;10.60;81.20
2539;DHT22;1280;49.760;9.664;2022-12-29T04:05:46;10.60;81.20
2539;DHT22;1280;49.760;9.664;2022-12-29T04:08:14;10.70;81.20
2539;DHT22;1280;49.760;9.664;2022-12-29T04:10:42;10.70;81.20
2539;DHT22;1280;49.760;9.664;2022-12-29T04:13:12;10.70;81.20
2539;DHT22;1280;49.760;9.664;2022-12-29T04:15:42;10.70;81.30
2539;DHT22;1280;49.760;9.664;2022-12-29T04:18:10;10.80;81.40
2539;DHT22;1280;49.760;9.664;2022-12-29T04:20:38;10.70;81.40
2539;DHT22;1280;49.760;9.664;2022-12-29T04:23:25;10.70;81.50
2539;DHT22;1280;49.760;9.664;2022-12-29T04:25:53;10.70;81.60
2539;DHT22;1280;49.760;9.664;2022-12-29T04:28:21;10.70;81.70
2539;DHT22;1280;49.760;9.664;2022-12-29T04:31:08;10.70;81.70
2539;DHT22;1280;49.760;9.664;2022-12-29T04:33:40;10.70;81.70
2539;DHT22;1280;49.760;9.664;2022-12-29T04:36:08;10.80;81.80
2539;DHT22;1280;49.760;9.664;2022-12-29T04:38:38;10.80;81.80
2539;DHT22;1280;49.760;9.664;2022-12-29T04:41:08;10.80;81.80
2539;DHT22;1280;49.760;9.664;2022-12-29T04:43:38;10.80;81.80
2539;DHT22;1280;49.760;9.664;2022-12-29T04:46:32;10.80;81.80
2539;DHT22;1280;49.760;9.664;2022-12-29T04:49:05;10.80;81.80
2539;DHT22;1280;49.760;9.664;2022-12-29T04:51:47;10.80;81.80
2539;DHT22;1280;49.760;9.664;2022-12-29T04:54:18;10.70;82.00
2539;DHT22;1280;49.760;9.664;2022-12-29T04:56:53;10.70;81.90
2539;DHT22;1280;49.760;9.664;2022-12-29T04:59:23;10.80;82.00
2539;DHT22;1280;49.760;9.664;2022-12-29T05:01:55;10.70;82.10
2539;DHT22;1280;49.760;9.664;2022-12-29T05:04:23;10.80;82.10
2539;DHT22;1280;49.760;9.664;2022-12-29T05:06:51;10.80;82.10
2539;DHT22;1280;49.760;9.664;2022-12-29T05:09:21;10.80;82.00
2539;DHT22;1280;49.760;9.664;2022-12-29T05:11:50;10.80;82.00
2539;DHT22;1280;49.760;9.664;2022-12-29T05:14:18;10.80;82.00
2539;DHT22;1280;49.760;9.664;2022-12-29T05:16:46;10.80;82.10
2539;DHT22;1280;49.760;9.664;2022-12-29T05:19:16;10.80;82.10
2539;DHT22;1280;49.760;9.664;2022-12-29T05:21:45;10.80;82.10
2539;DHT22;1280;49.760;9.664;2022-12-29T05:24:13;10.80;82.10
2539;DHT22;1280;49.760;9.664;2022-12-29T05:26:43;10.90;82.00
2539;DHT22;1280;49.760;9.664;2022-12-29T05:29:31;10.90;82.00
2539;DHT22;1280;49.760;9.664;2022-12-29T05:32:00;10.80;82.10
2539;DHT22;1280;49.760;9.664;2022-12-29T05:34:28;10.90;82.00
2539;DHT22;1280;49.760;9.664;2022-12-29T05:36:56;10.90;81.90
2539;DHT22;1280;49.760;9.664;2022-12-29T05:39:24;10.90;81.90
2539;DHT22;1280;49.760;9.664;2022-12-29T05:41:58;10.90;81.80
2539;DHT22;1280;49.760;9.664;2022-12-29T05:44:35;10.90;81.80
2539;DHT22;1280;49.760;9.664;2022-12-29T05:47:06;10.90;81.80
2539;DHT22;1280;49.760;9.664;2022-12-29T05:49:43;10.90;81.90
2539;DHT22;1280;49.760;9.664;2022-12-29T05:52:29;10.90;81.90
2539;DHT22;1280;49.760;9.664;2022-12-29T05:54:57;10.90;81.90
2539;DHT22;1280;49.760;9.664;2022-12-29T05:57:27;10.90;81.80
2539;DHT22;1280;49.760;9.664;2022-12-29T06:00:07;11.00;81.80
2539;DHT22;1280;49.760;9.664;2022-12-29T06:02:42;11.00;81.90
2539;DHT22;1280;49.760;9.664;2022-12-29T06:05:10;11.00;81.80
2539;DHT22;1280;49.760;9.664;2022-12-29T06:07:39;11.00;81.70
2539;DHT22;1280;49.760;9.664;2022-12-29T06:10:07;11.10;81.70
2539;DHT22;1280;49.760;9.664;2022-12-29T06:13:03;11.10;81.60
2539;DHT22;1280;49.760;9.664;2022-12-29T06:15:35;11.10;81.60
2539;DHT22;1280;49.760;9.664;2022-12-29T06:18:06;11.10;81.60
2539;DHT22;1280;49.760;9.664;2022-12-29T06:20:34;11.20;81.50
2539;DHT22;1280;49.760;9.664;2022-12-29T06:23:04;11.10;81.50
2539;DHT22;1280;49.760;9.664;2022-12-29T06:25:33;11.20;81.50
2539;DHT22;1280;49.760;9.664;2022-12-29T06:28:03;11.20;81.50
2539;DHT22;1280;49.760;9.664;2022-12-29T06:30:32;11.20;81.40
2539;DHT22;1280;49.760;9.664;2022-12-29T06:33:01;11.30;81.30
2539;DHT22;1280;49.760;9.664;2022-12-29T06:35:29;11.30;81.40
2539;DHT22;1280;49.760;9.664;2022-12-29T06:37:58;11.30;81.40
2539;DHT22;1280;49.760;9.664;2022-12-29T06:40:29;11.30;81.30
2539;DHT22;1280;49.760;9.664;2022-12-29T06:43:11;11.40;81.20
2539;DHT22;1280;49.760;9.664;2022-12-29T06:46:03;11.40;81.10
2539;DHT22;1280;49.760;9.664;2022-12-29T06:48:31;11.40;81.10
2539;DHT22;1280;49.760;9.664;2022-12-29T06:50:59;11.40;81.10
2539;DHT22;1280;49.760;9.664;2022-12-29T06:53:27;11.50;81.00
2539;DHT22;1280;49.760;9.664;2022-12-29T06:55:55;11.50;80.90
2539;DHT22;1280;49.760;9.664;2022-12-29T06:58:25;11.50;80.90
2539;DHT22;1280;49.760;9.664;2022-12-29T07:00:53;11.50;81.00
2539;DHT22;1280;49.760;9.664;2022-12-29T07:03:21;11.50;80.80
2539;DHT22;1280;49.760;9.664;2022-12-29T07:05:49;11.50;80.90
2539;DHT22;1280;49.760;9.664;2022-12-29T07:08:17;11.50;80.80
2539;DHT22;1280;49.760;9.664;2022-12-29T07:10:45;11.50;80.80
2539;DHT22;1280;49.760;9.664;2022-12-29T07:13:13;11.50;80.80
2539;DHT22;1280;49.760;9.664;2022-12-29T07:15:43;11.50;80.70
2539;DHT22;1280;49.760;9.664;2022-12-29T07:18:11;11.50;80.80
2539;DHT22;1280;49.760;9.664;2022-12-29T07:20:39;11.50;80.80
2539;DHT22;1280;49.760;9.664;2022-12-29T07:23:07;11.50;80.80
2539;DHT22;1280;49.760;9.664;2022-12-29T07:25:35;11.50;80.80
2539;DHT22;1280;49.760;9.664;2022-12-29T07:28:03;11.50;80.70
2539;DHT22;1280;49.760;9.664;2022-12-29T07:30:31;11.60;80.70
2539;DHT22;1280;49.760;9.664;2022-12-29T07:33:01;11.60;80.60
2539;DHT22;1280;49.760;9.664;2022-12-29T07:35:28;11.60;80.60
2539;DHT22;1280;49.760;9.664;2022-12-29T07:37:56;11.60;80.60
2539;DHT22;1280;49.760;9.664;2022-12-29T07:40:24;11.60;80.60
2539;DHT22;1280;49.760;9.664;2022-12-29T07:42:52;11.60;80.50
2539;DHT22;1280;49.760;9.664;2022-12-29T07:45:29;11.60;80.40
2539;DHT22;1280;49.760;9.664;2022-12-29T07:48:08;11.60;80.50
2539;DHT22;1280;49.760;9.664;2022-12-29T07:50:37;11.50;80.60
2539;DHT22;1280;49.760;9.664;2022-12-29T07:53:05;11.60;80.60
2539;DHT22;1280;49.760;9.664;2022-12-29T07:55:32;11.60;80.50
2539;DHT22;1280;49.760;9.664;2022-12-29T07:58:00;11.60;80.60
2539;DHT22;1280;49.760;9.664;2022-12-29T08:00:30;11.70;80.50
2539;DHT22;1280;49.760;9.664;2022-12-29T08:02:58;11.70;80.30
2539;DHT22;1280;49.760;9.664;2022-12-29T08:05:27;11.60;80.30
2539;DHT22;1280;49.760;9.664;2022-12-29T08:07:55;11.70;80.30
2539;DHT22;1280;49.760;9.664;2022-12-29T08:10:24;11.70;80.20
2539;DHT22;1280;49.760;9.664;2022-12-29T08:12:51;11.70;80.00
2539;DHT22;1280;49.760;9.664;2022-12-29T08:15:19;11.70;80.00
2539;DHT22;1280;49.760;9.664;2022-12-29T08:17:56;11.60;80.10
2539;DHT22;1280;49.760;9.664;2022-12-29T08:20:24;11.70;80.00
2539;DHT22;1280;49.760;9.664;2022-12-29T08:22:53;11.70;80.00
2539;DHT22;1280;49.760;9.664;2022-12-29T08:25:21;11.70;80.00
2539;DHT22;1280;49.760;9.664;2022-12-29T08:27:49;11.60;79.90
2539;DHT22;1280;49.760;9.664;2022-12-29T08:30:17;11.70;79.90
2539;DHT22;1280;49.760;9.664;2022-12-29T08:32:45;11.70;79.90
2539;DHT22;1280;49.760;9.664;2022-12-29T08:35:13;11.70;79.80
2539;DHT22;1280;49.760;9.664;2022-12-29T08:37:41;11.70;79.80
2539;DHT22;1280;49.760;9.664;2022-12-29T08:40:11;11.80;79.60
2539;DHT22;1280;49.760;9.664;2022-12-29T08:42:40;11.80;79.60
2539;DHT22;1280;49.760;9.664;2022-12-29T08:45:09;11.90;79.50
2539;DHT22;1280;49.760;9.664;2022-12-29T08:47:37;11.90;79.40
2539;DHT22;1280;49.760;9.664;2022-12-29T08:50:06;11.90;79.00
2539;DHT22;1280;49.760;9.664;2022-12-29T08:52:34;12.00;79.20
2539;DHT22;1280;49.760;9.664;2022-12-29T08:55:02;12.00;79.10
2539;DHT22;1280;49.760;9.664;2022-12-29T08:57:31;12.00;79.00
2539;DHT22;1280;49.760;9.664;2022-12-29T09:00:10;12.10;78.70
2539;DHT22;1280;49.760;9.664;2022-12-29T09:02:38;12.10;78.80
2539;DHT22;1280;49.760;9.664;2022-12-29T09:05:07;12.20;78.70
2539;DHT22;1280;49.760;9.664;2022-12-29T09:07:36;12.20;78.50
2539;DHT22;1280;49.760;9.664;2022-12-29T09:10:05;12.20;78.50
2539;DHT22;1280;49.760;9.664;2022-12-29T09:12:34;12.20;78.30
2539;DHT22;1280;49.760;9.664;2022-12-29T09:15:03;12.30;78.40
2539;DHT22;1280;49.760;9.664;2022-12-29T09:17:31;12.30;78.00
2539;DHT22;1280;49.760;9.664;2022-12-29T09:20:09;12.40;77.30
2539;DHT22;1280;49.760;9.664;2022-12-29T09:22:37;12.40;77.90
2539;DHT22;1280;49.760;9.664;2022-12-29T09:25:05;12.40;77.20
2539;DHT22;1280;49.760;9.664;2022-12-29T09:27:37;12.40;77.50
2539;DHT22;1280;49.760;9.664;2022-12-29T09:30:07;12.40;77.30
2539;DHT22;1280;49.760;9.664;2022-12-29T09:32:36;12.40;77.30
2539;DHT22;1280;49.760;9.664;2022-12-29T09:35:10;12.40;77.40
2539;DHT22;1280;49.760;9.664;2022-12-29T09:37:38;12.50;77.40
2539;DHT22;1280;49.760;9.664;2022-12-29T09:40:09;12.50;77.20
2539;DHT22;1280;49.760;9.664;2022-12-29T09:42:55;12.50;77.20
2539;DHT22;1280;49.760;9.664;2022-12-29T09:45:30;12.50;77.10
2539;DHT22;1280;49.760;9.664;2022-12-29T09:47:59;12.50;76.90
2539;DHT22;1280;49.760;9.664;2022-12-29T09:50:37;12.60;76.90
2539;DHT22;1280;49.760;9.664;2022-12-29T09:53:10;12.60;76.80
2539;DHT22;1280;49.760;9.664;2022-12-29T09:55:43;12.60;76.70
2539;DHT22;1280;49.760;9.664;2022-12-29T09:58:17;12.50;76.70
2539;DHT22;1280;49.760;9.664;2022-12-29T10:00:54;12.60;76.70
2539;DHT22;1280;49.760;9.664;2022-12-29T10:03:29;12.60;76.60
2539;DHT22;1280;49.760;9.664;2022-12-29T10:06:08;12.60;76.60
2539;DHT22;1280;49.760;9.664;2022-12-29T10:08:42;12.70;76.60
2539;DHT22;1280;49.760;9.664;2022-12-29T10:11:21;12.70;76.60
2539;DHT22;1280;49.760;9.664;2022-12-29T10:14:07;12.70;76.50
2539;DHT22;1280;49.760;9.664;2022-12-29T10:16:47;12.70;76.50
2539;DHT22;1280;49.760;9.664;2022-12-29T10:19:28;12.70;76.60
2539;DHT22;1280;49.760;9.664;2022-12-29T10:22:11;12.70;76.60
2539;DHT22;1280;49.760;9.664;2022-12-29T10:24:47;12.70;76.70
2539;DHT22;1280;49.760;9.664;2022-12-29T10:27:16;12.70;76.80
2539;DHT22;1280;49.760;9.664;2022-12-29T10:29:49;12.70;76.80
2539;DHT22;1280;49.760;9.664;2022-12-29T10:32:25;12.80;76.80
2539;DHT22;1280;49.760;9.664;2022-12-29T10:34:56;12.80;76.60
2539;DHT22;1280;49.760;9.664;2022-12-29T10:37:32;12.90;76.50
2539;DHT22;1280;49.760;9.664;2022-12-29T10:40:14;12.80;76.40
2539;DHT22;1280;49.760;9.664;2022-12-29T10:42:46;12.90;76.40
2539;DHT22;1280;49.760;9.664;2022-12-29T10:45:18;12.90;76.40
2539;DHT22;1280;49.760;9.664;2022-12-29T10:47:53;12.80;76.50
2539;DHT22;1280;49.760;9.664;2022-12-29T10:50:23;12.80;76.40
2539;DHT22;1280;49.760;9.664;2022-12-29T10:52:53;12.80;76.60
2539;DHT22;1280;49.760;9.664;2022-12-29T10:55:24;12.80;76.60
2539;DHT22;1280;49.760;9.664;2022-12-29T10:57:56;12.70;76.80
2539;DHT22;1280;49.760;9.664;2022-12-29T11:00:28;12.70;76.70
2539;DHT22;1280;49.760;9.664;2022-12-29T11:03:15;12.70;76.90
2539;DHT22;1280;49.760;9.664;2022-12-29T11:05:52;12.60;76.90
2539;DHT22;1280;49.760;9.664;2022-12-29T11:08:25;12.60;76.90
2539;DHT22;1280;49.760;9.664;2022-12-29T11:11:01;12.70;76.90
2539;DHT22;1280;49.760;9.664;2022-12-29T11:13:31;12.60;77.00
2539;DHT22;1280;49.760;9.664;2022-12-29T11:16:06;12.60;77.30
2539;DHT22;1280;49.760;9.664;2022-12-29T11:18:37;12.60;77.20
2539;DHT22;1280;49.760;9.664;2022-12-29T11:21:23;12.50;77.20
2539;DHT22;1280;49.760;9.664;2022-12-29T11:23:55;12.60;77.30
2539;DHT22;1280;49.760;9.664;2022-12-29T11:26:25;12.60;77.30
2539;DHT22;1280;49.760;9.664;2022-12-29T11:29:17;12.60;77.30
2539;DHT22;1280;49.760;9.664;2022-12-29T11:31:51;12.60;77.30
2539;DHT22;1280;49.760;9.664;2022-12-29T11:34:22;12.60;77.40
2539;DHT22;1280;49.760;9.664;2022-12-29T11:36:54;12.50;77.40
2539;DHT22;1280;49.760;9.664;2022-12-29T11:39:39;12.60;77.50
2539;DHT22;1280;49.760;9.664;2022-12-29T11:42:14;12.60;77.50
2539;DHT22;1280;49.760;9.664;2022-12-29T11:44:44;12.60;77.50
2539;DHT22;1280;49.760;9.664;2022-12-29T11:47:23;12.50;77.60
2539;DHT22;1280;49.760;9.664;2022-12-29T11:49:55;12.50;77.60
2539;DHT22;1280;49.760;9.664;2022-12-29T11:52:26;12.50;77.70
2539;DHT22;1280;49.760;9.664;2022-12-29T11:54:55;12.50;77.60
2539;DHT22;1280;49.760;9.664;2022-12-29T11:57:24;12.60;77.70
2539;DHT22;1280;49.760;9.664;2022-12-29T11:59:54;12.70;77.80
2539;DHT22;1280;49.760;9.664;2022-12-29T12:02:35;12.80;77.80
2539;DHT22;1280;49.760;9.664;2022-12-29T12:08:03;13.10;77.50
2539;DHT22;1280;49.760;9.664;2022-12-29T12:10:36;13.20;77.20
2539;DHT22;1280;49.760;9.664;2022-12-29T12:13:12;13.30;77.00
2539;DHT22;1280;49.760;9.664;2022-12-29T12:15:46;13.40;76.90
2539;DHT22;1280;49.760;9.664;2022-12-29T12:18:32;13.30;76.90
2539;DHT22;1280;49.760;9.664;2022-12-29T12:21:08;13.40;76.70
2539;DHT22;1280;49.760;9.664;2022-12-29T12:23:44;13.50;76.60
2539;DHT22;1280;49.760;9.664;2022-12-29T12:26:18;13.50;76.40
2539;DHT22;1280;49.760;9.664;2022-12-29T12:28:51;13.50;76.60
2539;DHT22;1280;49.760;9.664;2022-12-29T12:31:31;13.60;76.30
2539;DHT22;1280;49.760;9.664;2022-12-29T12:34:07;13.60;76.30
2539;DHT22;1280;49.760;9.664;2022-12-29T12:36:57;13.70;75.80
2539;DHT22;1280;49.760;9.664;2022-12-29T12:39:30;13.80;75.70
2539;DHT22;1280;49.760;9.664;2022-12-29T12:42:10;13.70;75.60
2539;DHT22;1280;49.760;9.664;2022-12-29T12:44:48;13.80;75.50
2539;DHT22;1280;49.760;9.664;2022-12-29T12:47:39;13.80;75.40
2539;DHT22;1280;49.760;9.664;2022-12-29T12:50:22;13.70;75.30
2539;DHT22;1280;49.760;9.664;2022-12-29T12:53:19;13.70;75.40
2539;DHT22;1280;49.760;9.664;2022-12-29T12:56:02;13.60;75.30
2539;DHT22;1280;49.760;9.664;2022-12-29T12:58:38;13.50;75.40
2539;DHT22;1280;49.760;9.664;2022-12-29T13:01:18;13.50;75.40
2539;DHT22;1280;49.760;9.664;2022-12-29T13:03:59;13.50;75.40
2539;DHT22;1280;49.760;9.664;2022-12-29T13:06:37;13.40;75.60
2539;DHT22;1280;49.760;9.664;2022-12-29T13:09:27;13.40;75.50
2539;DHT22;1280;49.760;9.664;2022-12-29T13:12:07;13.40;75.70
2539;DHT22;1280;49.760;9.664;2022-12-29T13:14:57;13.40;75.60
2539;DHT22;1280;49.760;9.664;2022-12-29T13:17:34;13.40;75.50
2539;DHT22;1280;49.760;9.664;2022-12-29T13:20:11;13.30;75.70
2539;DHT22;1280;49.760;9.664;2022-12-29T13:22:50;13.30;75.70
2539;DHT22;1280;49.760;9.664;2022-12-29T13:25:27;13.20;75.80
2539;DHT22;1280;49.760;9.664;2022-12-29T13:28:00;13.10;76.00
2539;DHT22;1280;49.760;9.664;2022-12-29T13:30:35;13.10;76.10
2539;DHT22;1280;49.760;9.664;2022-12-29T13:33:13;13.00;76.20
2539;DHT22;1280;49.760;9.664;2022-12-29T13:36:00;13.00;76.30
2539;DHT22;1280;49.760;9.664;2022-12-29T13:38:34;13.00;76.40
2539;DHT22;1280;49.760;9.664;2022-12-29T13:41:07;13.00;76.40
2539;DHT22;1280;49.760;9.664;2022-12-29T13:43:38;13.00;76.30
2539;DHT22;1280;49.760;9.664;2022-12-29T13:46:10;13.00;76.10
2539;DHT22;1280;49.760;9.664;2022-12-29T13:48:43;13.00;76.20
2539;DHT22;1280;49.760;9.664;2022-12-29T13:51:15;13.00;76.00
2539;DHT22;1280;49.760;9.664;2022-12-29T13:54:05;12.90;76.10
2539;DHT22;1280;49.760;9.664;2022-12-29T13:56:40;13.00;76.10
2539;DHT22;1280;49.760;9.664;2022-12-29T13:59:18;13.00;76.00
2539;DHT22;1280;49.760;9.664;2022-12-29T14:01:52;13.00;76.00
2539;DHT22;1280;49.760;9.664;2022-12-29T14:04:23;13.00;76.00
2539;DHT22;1280;49.760;9.664;2022-12-29T14:07:03;13.00;76.00
2539;DHT22;1280;49.760;9.664;2022-12-29T14:09:46;13.00;75.90
2539;DHT22;1280;49.760;9.664;2022-12-29T14:12:29;13.00;75.90
2539;DHT22;1280;49.760;9.664;2022-12-29T14:15:14;13.00;75.80
2539;DHT22;1280;49.760;9.664;2022-12-29T14:17:43;12.90;75.80
2539;DHT22;1280;49.760;9.664;2022-12-29T14:20:19;12.90;75.70
2539;DHT22;1280;49.760;9.664;2022-12-29T14:22:57;12.90;75.80
2539;DHT22;1280;49.760;9.664;2022-12-29T14:25:56;12.80;75.90
2539;DHT22;1280;49.760;9.664;2022-12-29T14:28:26;12.80;75.80
2539;DHT22;1280;49.760;9.664;2022-12-29T14:30:55;12.80;75.80
2539;DHT22;1280;49.760;9.664;2022-12-29T14:33:26;12.80;75.80
2539;DHT22;1280;49.760;9.664;2022-12-29T14:35:54;12.80;75.90
2539;DHT22;1280;49.760;9.664;2022-12-29T14:38:26;12.70;76.00
2539;DHT22;1280;49.760;9.664;2022-12-29T14:41:18;12.70;76.00
2539;DHT22;1280;49.760;9.664;2022-12-29T14:43:54;12.70;76.00
2539;DHT22;1280;49.760;9.664;2022-12-29T14:46:23;12.70;76.00
2539;DHT22;1280;49.760;9.664;2022-12-29T14:48:56;12.70;75.80
2539;DHT22;1280;49.760;9.664;2022-12-29T14:51:36;12.70;75.90
2539;DHT22;1280;49.760;9.664;2022-12-29T14:57:29;12.70;76.10
2539;DHT22;1280;49.760;9.664;2022-12-29T15:00:05;12.70;76.10
2539;DHT22;1280;49.760;9.664;2022-12-29T15:02:39;12.60;76.10
2539;DHT22;1280;49.760;9.664;2022-12-29T15:05:27;12.60;76.30
2539;DHT22;1280;49.760;9.664;2022-12-29T15:07:58;12.50;76.50
2539;DHT22;1280;49.760;9.664;2022-12-29T15:10:34;12.50;76.50
2539;DHT22;1280;49.760;9.664;2022-12-29T15:13:14;12.50;76.70
2539;DHT22;1280;49.760;9.664;2022-12-29T15:15:43;12.40;76.70
2539;DHT22;1280;49.760;9.664;2022-12-29T15:18:14;12.40;76.70
2539;DHT22;1280;49.760;9.664;2022-12-29T15:20:42;12.30;76.90
2539;DHT22;1280;49.760;9.664;2022-12-29T15:23:12;12.20;77.00
2539;DHT22;1280;49.760;9.664;2022-12-29T15:25:47;12.20;77.20
2539;DHT22;1280;49.760;9.664;2022-12-29T15:28:17;12.10;77.40
2539;DHT22;1280;49.760;9.664;2022-12-29T15:30:52;12.00;77.60
2539;DHT22;1280;49.760;9.664;2022-12-29T15:33:22;12.00;77.80
2539;DHT22;1280;49.760;9.664;2022-12-29T15:35:51;11.90;77.90
2539;DHT22;1280;49.760;9.664;2022-12-29T15:38:22;11.90;78.30
2539;DHT22;1280;49.760;9.664;2022-12-29T15:41:04;11.90;78.20
2539;DHT22;1280;49.760;9.664;2022-12-29T15:43:42;11.90;78.20
2539;DHT22;1280;49.760;9.664;2022-12-29T15:46:13;11.80;78.40
2539;DHT22;1280;49.760;9.664;2022-12-29T15:48:42;11.80;78.40
2539;DHT22;1280;49.760;9.664;2022-12-29T15:51:19;11.80;78.50
2539;DHT22;1280;49.760;9.664;2022-12-29T15:53:48;11.80;78.50
2539;DHT22;1280;49.760;9.664;2022-12-29T15:56:18;11.80;78.40
2539;DHT22;1280;49.760;9.664;2022-12-29T15:58:49;11.80;78.60
2539;DHT22;1280;49.760;9.664;2022-12-29T16:01:19;11.80;78.70
2539;DHT22;1280;49.760;9.664;2022-12-29T16:03:52;11.80;78.90
2539;DHT22;1280;49.760;9.664;2022-12-29T16:06:39;11.80;79.00
2539;DHT22;1280;49.760;9.664;2022-12-29T16:09:15;11.90;79.00
2539;DHT22;1280;49.760;9.664;2022-12-29T16:11:45;11.90;79.00
2539;DHT22;1280;49.760;9.664;2022-12-29T16:14:17;11.90;79.00
2539;DHT22;1280;49.760;9.664;2022-12-29T16:16:47;11.90;79.00
2539;DHT22;1280;49.760;9.664;2022-12-29T16:19:21;11.90;79.10
2539;DHT22;1280;49.760;9.664;2022-12-29T16:21:51;12.00;79.20
2539;DHT22;1280;49.760;9.664;2022-12-29T16:24:21;12.00;79.10
2539;DHT22;1280;49.760;9.664;2022-12-29T16:26:53;12.00;79.20
2539;DHT22;1280;49.760;9.664;2022-12-29T16:29:27;12.00;79.20
2539;DHT22;1280;49.760;9.664;2022-12-29T16:31:58;12.00;79.20
2539;DHT22;1280;49.760;9.664;2022-12-29T16:34:31;11.90;79.20
2539;DHT22;1280;49.760;9.664;2022-12-29T16:37:00;11.90;79.30
2539;DHT22;1280;49.760;9.664;2022-12-29T16:39:31;11.90;79.40
2539;DHT22;1280;49.760;9.664;2022-12-29T16:42:00;11.90;79.40
2539;DHT22;1280;49.760;9.664;2022-12-29T16:44:30;11.90;79.40
2539;DHT22;1280;49.760;9.664;2022-12-29T16:49:52;11.80;79.30
2539;DHT22;1280;49.760;9.664;2022-12-29T16:52:23;11.80;79.30